Time;durP1;ratioP1;P1;durP2;ratioP2;P2;SDS_P1;SDS_P2;PMS_P1;PMS_P2;Temp;Humidity;BMP_temperature;BMP_pressure;BME280_temperature;BME280_humidity;BME280_pressure;Samples;Min_cycle;Max_cycle;Signal;HPM_P1;HPM_P2
2023/04/14 00:00:56;;;;;;;3.80;2.93;;;9.30;99.90;;;;;;5046028;28;20452;-70
2023/04/14 00:03:22;;;;;;;3.27;2.73;;;9.40;99.90;;;;;;5062272;28;20237;-69
2023/04/14 00:05:47;;;;;;;3.97;2.40;;;9.40;99.90;;;;;;5062439;28;20181;-68
2023/04/14 00:08:13;;;;;;;2.80;2.47;;;9.40;99.90;;;;;;5062286;28;20189;-67
2023/04/14 00:10:39;;;;;;;4.00;2.70;;;9.40;99.90;;;;;;5063435;28;20197;-67
2023/04/14 00:13:04;;;;;;;4.83;2.87;;;9.30;99.90;;;;;;5062269;28;20235;-66
2023/04/14 00:15:30;;;;;;;3.20;2.90;;;9.10;99.90;;;;;;5062839;28;20186;-67
2023/04/14 00:17:55;;;;;;;4.27;2.60;;;9.10;99.90;;;;;;5062378;28;20668;-67
2023/04/14 00:20:21;;;;;;;6.50;3.00;;;9.10;99.90;;;;;;5045558;28;20606;-69
2023/04/14 00:22:47;;;;;;;4.73;3.17;;;9.00;99.90;;;;;;5045455;28;20570;-68
2023/04/14 00:25:12;;;;;;;4.67;2.33;;;9.00;99.90;;;;;;5045797;28;20572;-69
2023/04/14 00:27:38;;;;;;;6.63;3.33;;;9.00;99.90;;;;;;5061856;28;20180;-68
2023/04/14 00:30:04;;;;;;;4.70;3.00;;;9.00;99.90;;;;;;5062519;28;20304;-69
2023/04/14 00:32:30;;;;;;;9.50;2.70;;;9.00;99.90;;;;;;5045226;28;20201;-68
2023/04/14 00:34:55;;;;;;;5.53;2.93;;;8.90;99.90;;;;;;5062119;28;20430;-68
2023/04/14 00:37:22;;;;;;;4.80;2.63;;;8.80;99.90;;;;;;5044609;28;20440;-68
2023/04/14 00:39:47;;;;;;;5.07;2.93;;;8.60;99.90;;;;;;5061881;28;20255;-67
2023/04/14 00:42:13;;;;;;;4.50;3.10;;;8.50;99.90;;;;;;5061662;28;20873;-69
2023/04/14 00:44:38;;;;;;;3.97;2.93;;;8.50;99.90;;;;;;5061869;28;20191;-68
2023/04/14 00:47:04;;;;;;;5.53;3.03;;;8.50;99.90;;;;;;5045455;28;20649;-67
2023/04/14 00:49:30;;;;;;;6.80;2.90;;;8.40;99.90;;;;;;5044640;28;20290;-68
2023/04/14 00:51:56;;;;;;;5.77;3.00;;;8.40;99.90;;;;;;5045088;28;20218;-68
2023/04/14 00:54:23;;;;;;;6.73;3.37;;;8.40;99.90;;;;;;5044775;28;20416;-69
2023/04/14 00:56:50;;;;;;;4.00;2.03;;;8.20;99.90;;;;;;5062254;28;20934;-67
2023/04/14 00:59:16;;;;;;;3.90;2.10;;;8.20;99.90;;;;;;5067863;28;20434;-69
2023/04/14 01:01:42;;;;;;;7.13;3.40;;;8.30;99.90;;;;;;5053781;28;20441;-69
2023/04/14 01:04:08;;;;;;;6.67;2.90;;;8.10;99.90;;;;;;5052332;28;20561;-70
2023/04/14 01:06:35;;;;;;;5.00;2.77;;;8.00;99.90;;;;;;5070317;28;20187;-68
2023/04/14 01:09:01;;;;;;;8.80;2.77;;;8.00;99.90;;;;;;5069793;28;20550;-66
2023/04/14 01:11:55;;;;;;;4.90;2.50;;;7.90;99.90;;;;;;5051618;28;20434;-67
2023/04/14 01:14:51;;;;;;;6.87;2.50;;;8.10;99.90;;;;;;5052023;28;20426;-65
2023/04/14 01:17:34;;;;;;;4.50;2.17;;;8.10;99.90;;;;;;5053464;28;20421;-67
2023/04/14 01:20:25;;;;;;;6.80;2.30;;;8.10;99.90;;;;;;5049397;28;20417;-67
2023/04/14 01:23:02;;;;;;;7.10;2.93;;;8.00;99.90;;;;;;5049101;28;20442;-68
2023/04/14 01:25:42;;;;;;;5.53;2.50;;;7.90;99.90;;;;;;5050655;28;20516;-67
2023/04/14 01:28:26;;;;;;;6.40;2.73;;;7.90;99.90;;;;;;5049723;28;20453;-67
2023/04/14 01:31:04;;;;;;;5.10;2.77;;;7.80;99.90;;;;;;5048628;28;20455;-67
2023/04/14 01:33:35;;;;;;;7.73;2.90;;;7.70;99.90;;;;;;5031962;28;20417;-67
2023/04/14 01:36:05;;;;;;;5.43;3.57;;;7.60;99.90;;;;;;5048691;28;20780;-68
2023/04/14 01:38:34;;;;;;;4.80;3.20;;;7.60;99.90;;;;;;5065295;28;20918;-67
2023/04/14 01:41:13;;;;;;;3.77;2.90;;;7.40;99.90;;;;;;5064918;28;20420;-68
2023/04/14 01:43:43;;;;;;;4.40;3.10;;;7.40;99.90;;;;;;5065362;28;20414;-67
2023/04/14 01:46:13;;;;;;;5.50;3.30;;;7.50;99.90;;;;;;5048459;28;20420;-66
2023/04/14 01:48:40;;;;;;;6.17;3.13;;;7.40;99.90;;;;;;5048234;28;20540;-67
2023/04/14 01:51:07;;;;;;;5.93;3.93;;;7.40;99.90;;;;;;5064699;28;20882;-68
2023/04/14 01:53:37;;;;;;;6.73;3.23;;;7.40;99.90;;;;;;5048422;28;20431;-66
2023/04/14 01:56:03;;;;;;;4.27;3.50;;;7.30;99.90;;;;;;5064489;28;20777;-67
2023/04/14 01:58:31;;;;;;;5.10;3.23;;;7.20;99.90;;;;;;5064851;28;20523;-68
2023/04/14 02:00:57;;;;;;;5.37;3.47;;;7.10;99.90;;;;;;5064600;28;20413;-67
2023/04/14 02:03:25;;;;;;;7.33;3.93;;;7.00;99.90;;;;;;5047765;28;20437;-68
2023/04/14 02:05:53;;;;;;;6.83;3.30;;;6.90;99.90;;;;;;5047985;28;20483;-68
2023/04/14 02:08:21;;;;;;;3.30;3.00;;;7.00;99.90;;;;;;5047783;28;20431;-68
2023/04/14 02:10:51;;;;;;;4.47;3.40;;;6.90;99.90;;;;;;5047304;28;20509;-70
2023/04/14 02:13:18;;;;;;;7.27;4.10;;;7.00;99.90;;;;;;5064343;28;20501;-68
2023/04/14 02:15:46;;;;;;;5.60;3.33;;;7.00;99.90;;;;;;5065781;28;20409;-68
2023/04/14 02:18:14;;;;;;;4.00;3.07;;;7.00;99.90;;;;;;5047764;28;20947;-69
2023/04/14 02:20:43;;;;;;;6.10;2.70;;;6.90;99.90;;;;;;5065802;28;20507;-69
2023/04/14 02:23:11;;;;;;;3.53;2.83;;;6.70;99.90;;;;;;5064243;28;20819;-69
2023/04/14 02:25:39;;;;;;;4.03;2.70;;;6.60;99.90;;;;;;5047262;28;20477;-68
2023/04/14 02:28:09;;;;;;;3.33;3.03;;;6.70;99.90;;;;;;5064190;28;20415;-68
2023/04/14 02:30:38;;;;;;;4.43;3.00;;;6.70;99.90;;;;;;5064082;28;20561;-67
2023/04/14 02:33:18;;;;;;;3.37;3.07;;;6.70;99.90;;;;;;5047557;28;20461;-69
2023/04/14 02:35:55;;;;;;;5.40;3.20;;;6.70;99.90;;;;;;5047346;28;20424;-69
2023/04/14 02:38:29;;;;;;;5.10;3.30;;;6.70;99.90;;;;;;5064025;28;20495;-67
2023/04/14 02:40:55;;;;;;;6.40;3.40;;;6.60;99.90;;;;;;5047043;28;20535;-68
2023/04/14 02:43:29;;;;;;;5.10;3.17;;;6.60;99.90;;;;;;5064040;28;20444;-66
2023/04/14 02:45:57;;;;;;;5.33;2.90;;;6.60;99.90;;;;;;5062765;28;20424;-65
2023/04/14 02:48:25;;;;;;;4.10;2.90;;;6.70;99.90;;;;;;5063786;28;20553;-67
2023/04/14 02:50:53;;;;;;;8.20;3.13;;;6.70;99.90;;;;;;5047043;28;20456;-68
2023/04/14 02:53:24;;;;;;;5.70;2.20;;;6.80;99.90;;;;;;5047239;28;20448;-67
2023/04/14 02:55:53;;;;;;;6.07;3.10;;;6.80;99.90;;;;;;5063728;28;20548;-67
2023/04/14 02:58:20;;;;;;;4.30;2.80;;;6.80;99.90;;;;;;5045536;28;20408;-67
2023/04/14 03:00:46;;;;;;;6.73;2.90;;;6.70;99.90;;;;;;5063540;28;20700;-66
2023/04/14 03:03:12;;;;;;;4.70;3.10;;;6.60;99.90;;;;;;5046863;28;20440;-67
2023/04/14 03:05:42;;;;;;;7.27;3.17;;;6.70;99.90;;;;;;5063330;28;20427;-67
2023/04/14 03:08:10;;;;;;;6.93;2.93;;;6.70;99.90;;;;;;5063206;28;20427;-66
2023/04/14 03:10:37;;;;;;;9.03;2.90;;;6.60;99.90;;;;;;5063194;28;20455;-67
2023/04/14 03:13:04;;;;;;;5.30;3.13;;;6.60;99.90;;;;;;5063124;28;20436;-67
2023/04/14 03:15:32;;;;;;;6.87;2.63;;;6.60;99.90;;;;;;5063370;28;20409;-68
2023/04/14 03:17:58;;;;;;;3.00;2.50;;;6.70;99.90;;;;;;5064397;28;20423;-66
2023/04/14 03:20:25;;;;;;;9.50;3.37;;;6.70;99.90;;;;;;5046266;28;20933;-67
2023/04/14 03:22:56;;;;;;;7.60;2.70;;;6.70;99.90;;;;;;5065244;28;21232;-69
2023/04/14 03:25:27;;;;;;;4.20;3.10;;;6.70;99.90;;;;;;5046642;28;20419;-70
2023/04/14 03:27:59;;;;;;;5.20;2.70;;;6.60;99.90;;;;;;5046212;28;20416;-70
2023/04/14 03:30:29;;;;;;;4.40;2.67;;;6.60;99.90;;;;;;5046675;28;20923;-69
2023/04/14 03:33:05;;;;;;;6.60;2.40;;;6.50;99.90;;;;;;5046436;28;20810;-69
2023/04/14 03:35:33;;;;;;;7.03;3.00;;;6.50;99.90;;;;;;5046415;28;20570;-69
2023/04/14 03:38:01;;;;;;;5.77;3.40;;;6.40;99.90;;;;;;5046083;28;20412;-69
2023/04/14 03:40:30;;;;;;;4.57;2.87;;;6.40;99.90;;;;;;5062833;28;20420;-68
2023/04/14 03:42:57;;;;;;;7.83;3.13;;;6.50;99.90;;;;;;5062371;28;20519;-68
2023/04/14 03:45:25;;;;;;;6.83;2.87;;;6.40;99.90;;;;;;5046266;28;20760;-69
2023/04/14 03:47:56;;;;;;;7.43;3.17;;;6.40;99.90;;;;;;5046185;28;20400;-69
2023/04/14 03:50:25;;;;;;;5.97;3.13;;;6.40;99.90;;;;;;5045802;28;20622;-69
2023/04/14 03:52:52;;;;;;;6.80;2.70;;;6.50;99.90;;;;;;5045726;28;20471;-69
2023/04/14 03:55:18;;;;;;;6.50;3.00;;;6.50;99.90;;;;;;5062290;28;20957;-67
2023/04/14 03:57:46;;;;;;;6.77;3.53;;;6.60;99.90;;;;;;5062465;28;20419;-70
2023/04/14 04:00:14;;;;;;;7.33;3.33;;;6.60;99.90;;;;;;5062343;28;20416;-69
2023/04/14 04:02:41;;;;;;;9.40;2.83;;;6.50;99.90;;;;;;5062470;28;20691;-69
2023/04/14 04:05:08;;;;;;;5.10;2.73;;;6.60;99.90;;;;;;5063879;28;20411;-69
2023/04/14 04:07:34;;;;;;;6.03;2.53;;;6.50;99.90;;;;;;5045859;28;20414;-69
2023/04/14 04:10:02;;;;;;;4.63;2.70;;;6.50;99.90;;;;;;5045454;28;20895;-69
2023/04/14 04:12:29;;;;;;;8.33;3.90;;;6.50;99.90;;;;;;5045273;28;20455;-67
2023/04/14 04:14:55;;;;;;;5.00;3.20;;;6.50;99.90;;;;;;5062560;28;20426;-69
2023/04/14 04:17:23;;;;;;;8.90;2.90;;;6.50;99.90;;;;;;5061919;28;20601;-68
2023/04/14 04:19:49;;;;;;;5.40;2.70;;;6.50;99.90;;;;;;5062222;28;20666;-67
2023/04/14 04:22:18;;;;;;;4.83;3.17;;;6.50;99.90;;;;;;5062381;28;20959;-69
2023/04/14 04:24:44;;;;;;;5.33;2.80;;;6.50;99.90;;;;;;5062489;28;20500;-69
2023/04/14 04:27:10;;;;;;;8.23;3.50;;;6.40;99.90;;;;;;5062199;28;20919;-69
2023/04/14 04:29:37;;;;;;;5.30;2.87;;;6.40;99.90;;;;;;5062594;28;20971;-69
2023/04/14 04:32:04;;;;;;;6.00;2.33;;;6.40;99.90;;;;;;5045489;28;20459;-69
2023/04/14 04:34:31;;;;;;;7.00;3.40;;;6.20;99.90;;;;;;5063078;28;20988;-69
2023/04/14 04:37:01;;;;;;;5.60;2.93;;;6.10;99.90;;;;;;5045776;28;20417;-68
2023/04/14 04:39:29;;;;;;;5.87;2.90;;;6.10;99.90;;;;;;5062405;28;20420;-69
2023/04/14 04:42:02;;;;;;;10.37;3.83;;;5.90;99.90;;;;;;5045952;28;20444;-68
2023/04/14 04:44:28;;;;;;;7.30;4.00;;;5.90;99.90;;;;;;5046411;28;20466;-68
2023/04/14 04:46:56;;;;;;;4.97;3.43;;;6.00;99.90;;;;;;5062219;28;20512;-67
2023/04/14 04:49:21;;;;;;;12.37;5.27;;;6.00;99.90;;;;;;5061665;28;20202;-67
2023/04/14 04:51:48;;;;;;;11.63;5.13;;;6.00;99.90;;;;;;5061835;28;20463;-68
2023/04/14 04:54:14;;;;;;;7.80;4.83;;;6.00;99.90;;;;;;5045284;28;20232;-67
2023/04/14 04:56:40;;;;;;;10.37;4.20;;;6.00;99.90;;;;;;5045118;28;20411;-68
2023/04/14 04:59:06;;;;;;;9.90;4.20;;;5.90;99.90;;;;;;5061787;28;20426;-67
2023/04/14 05:01:31;;;;;;;11.33;4.10;;;5.90;99.90;;;;;;5037005;28;20433;-66
2023/04/14 05:03:57;;;;;;;6.40;3.53;;;5.90;99.90;;;;;;5045507;28;20677;-68
2023/04/14 05:06:23;;;;;;;10.27;3.57;;;5.90;99.90;;;;;;5061626;28;20681;-68
2023/04/14 05:08:53;;;;;;;10.37;3.73;;;5.80;99.90;;;;;;5061339;28;20692;-67
2023/04/14 05:11:18;;;;;;;8.40;3.60;;;5.90;99.90;;;;;;5061424;28;20448;-67
2023/04/14 05:13:44;;;;;;;8.40;4.00;;;5.90;99.90;;;;;;5061895;28;20822;-68
2023/04/14 05:16:14;;;;;;;6.00;3.47;;;5.70;99.90;;;;;;5062266;28;20360;-66
2023/04/14 05:18:40;;;;;;;6.73;3.23;;;5.90;99.90;;;;;;5046640;28;20186;-67
2023/04/14 05:21:08;;;;;;;9.77;3.70;;;6.00;99.90;;;;;;5045842;28;20431;-68
2023/04/14 05:23:36;;;;;;;3.97;3.20;;;6.10;99.90;;;;;;5062826;28;20495;-67
2023/04/14 05:26:02;;;;;;;4.27;3.33;;;6.10;99.90;;;;;;5064447;28;20922;-68
2023/04/14 05:28:29;;;;;;;6.50;3.07;;;6.10;99.90;;;;;;5065166;28;20454;-67
2023/04/14 05:30:55;;;;;;;6.70;3.83;;;6.20;99.90;;;;;;5064608;28;21310;-67
2023/04/14 05:33:21;;;;;;;14.00;4.30;;;6.20;99.90;;;;;;5062469;28;20593;-65
2023/04/14 05:35:49;;;;;;;6.30;4.00;;;6.20;99.90;;;;;;5063500;28;20174;-65
2023/04/14 05:38:16;;;;;;;8.70;4.57;;;6.20;99.90;;;;;;5045776;28;20412;-68
2023/04/14 05:40:41;;;;;;;11.23;4.40;;;6.20;99.90;;;;;;5044898;28;20420;-67
2023/04/14 05:43:07;;;;;;;13.33;4.37;;;6.30;99.90;;;;;;5046086;28;20813;-67
2023/04/14 05:45:33;;;;;;;6.63;4.17;;;6.40;99.90;;;;;;5067004;28;21045;-66
2023/04/14 05:47:59;;;;;;;8.87;4.90;;;6.40;99.90;;;;;;5065369;28;20264;-67
2023/04/14 05:50:24;;;;;;;6.40;3.70;;;6.40;99.90;;;;;;5064638;28;20487;-68
2023/04/14 05:52:50;;;;;;;6.13;4.00;;;6.40;99.90;;;;;;5048666;28;20225;-67
2023/04/14 05:55:16;;;;;;;9.07;3.67;;;6.50;99.90;;;;;;5048396;28;20589;-66
2023/04/14 05:57:42;;;;;;;5.97;3.30;;;6.50;99.90;;;;;;5048064;28;20786;-66
2023/04/14 06:00:09;;;;;;;8.97;4.10;;;6.60;99.90;;;;;;5064628;28;20462;-65
2023/04/14 06:02:35;;;;;;;8.53;3.00;;;6.60;99.90;;;;;;5047903;28;20221;-67
2023/04/14 06:05:01;;;;;;;7.13;3.80;;;6.70;99.90;;;;;;5047789;28;20939;-66
2023/04/14 06:07:29;;;;;;;9.50;4.00;;;6.70;99.90;;;;;;5048000;28;20566;-69
2023/04/14 06:09:55;;;;;;;9.67;4.03;;;6.80;99.90;;;;;;5064355;28;21003;-69
2023/04/14 06:12:20;;;;;;;6.30;3.60;;;6.80;99.90;;;;;;5047732;28;20452;-69
2023/04/14 06:14:46;;;;;;;5.17;3.30;;;7.00;99.90;;;;;;5047719;28;20186;-67
2023/04/14 06:17:12;;;;;;;6.60;3.80;;;7.10;99.90;;;;;;5064554;28;20177;-67
2023/04/14 06:19:38;;;;;;;6.23;4.10;;;7.20;99.90;;;;;;5047817;28;20183;-68
2023/04/14 06:22:04;;;;;;;5.10;3.47;;;7.40;99.90;;;;;;5047380;28;20203;-67
2023/04/14 06:24:32;;;;;;;10.17;4.60;;;7.50;99.90;;;;;;5064326;28;20424;-67
2023/04/14 06:26:57;;;;;;;5.20;3.67;;;7.60;99.90;;;;;;5063957;28;20447;-67
2023/04/14 06:29:23;;;;;;;6.20;3.37;;;7.70;99.90;;;;;;5047837;28;20532;-67
2023/04/14 06:31:50;;;;;;;8.03;3.67;;;7.80;99.90;;;;;;5047781;28;20248;-67
2023/04/14 06:34:16;;;;;;;6.70;3.40;;;7.90;99.90;;;;;;5047274;28;20181;-67
2023/04/14 06:36:42;;;;;;;6.53;3.97;;;8.00;99.90;;;;;;5047830;28;20436;-68
2023/04/14 06:39:08;;;;;;;7.17;3.37;;;8.20;99.90;;;;;;5063591;28;20487;-67
2023/04/14 06:41:33;;;;;;;7.83;3.77;;;8.30;99.90;;;;;;5046985;28;20201;-67
2023/04/14 06:43:59;;;;;;;5.23;3.20;;;8.50;99.90;;;;;;5063928;28;20175;-67
2023/04/14 06:46:25;;;;;;;6.57;3.80;;;8.60;99.90;;;;;;5063985;28;20185;-67
2023/04/14 06:48:50;;;;;;;6.40;3.10;;;8.70;99.90;;;;;;5046977;28;20880;-68
2023/04/14 06:51:16;;;;;;;6.80;3.50;;;8.90;99.90;;;;;;5063685;28;20198;-68
2023/04/14 06:53:42;;;;;;;5.73;2.83;;;9.00;99.90;;;;;;5046411;28;20243;-67
2023/04/14 06:56:08;;;;;;;8.17;3.90;;;9.20;99.90;;;;;;5063291;28;21273;-66
2023/04/14 06:58:33;;;;;;;6.37;3.30;;;9.30;99.90;;;;;;5046833;28;20750;-67
2023/04/14 07:01:01;;;;;;;4.57;2.90;;;8.80;99.90;;;;;;5063325;28;20230;-67
2023/04/14 07:03:28;;;;;;;7.20;4.00;;;8.90;99.90;;;;;;5046906;28;20618;-68
2023/04/14 07:05:53;;;;;;;8.33;3.87;;;9.20;99.90;;;;;;5046433;28;20461;-67
2023/04/14 07:08:20;;;;;;;8.90;4.10;;;9.00;99.90;;;;;;5046878;28;20728;-66
2023/04/14 07:10:46;;;;;;;6.33;4.50;;;8.80;99.90;;;;;;5046807;28;20206;-68
2023/04/14 07:13:12;;;;;;;13.03;6.30;;;9.10;99.90;;;;;;5062548;28;20436;-66
2023/04/14 07:15:38;;;;;;;10.83;5.67;;;9.10;99.90;;;;;;5063656;28;20486;-68
2023/04/14 07:18:04;;;;;;;11.47;5.80;;;9.20;99.90;;;;;;5046707;28;20419;-67
2023/04/14 07:20:30;;;;;;;10.80;4.67;;;9.30;99.90;;;;;;5061861;28;20182;-68
2023/04/14 07:22:55;;;;;;;9.37;4.93;;;9.40;99.90;;;;;;5063008;28;20636;-68
2023/04/14 07:25:21;;;;;;;9.00;4.53;;;9.40;99.90;;;;;;5063395;28;20759;-67
2023/04/14 07:27:47;;;;;;;6.60;4.40;;;9.60;99.90;;;;;;5046452;28;20216;-68
2023/04/14 07:30:13;;;;;;;11.07;4.57;;;9.70;99.90;;;;;;5046271;28;20485;-68
2023/04/14 07:32:39;;;;;;;5.97;3.70;;;9.80;99.90;;;;;;5046408;28;20641;-67
2023/04/14 07:35:07;;;;;;;8.00;4.30;;;9.80;99.90;;;;;;5045727;28;20185;-66
2023/04/14 07:37:33;;;;;;;10.00;3.67;;;9.90;99.90;;;;;;5062890;28;21252;-66
2023/04/14 07:39:58;;;;;;;4.73;2.77;;;9.80;99.90;;;;;;5046597;28;20518;-69
2023/04/14 07:42:24;;;;;;;4.20;2.80;;;9.70;99.90;;;;;;5062674;28;20203;-67
2023/04/14 07:44:49;;;;;;;4.37;2.70;;;9.60;99.90;;;;;;5046538;28;20223;-69
2023/04/14 07:47:15;;;;;;;6.87;3.40;;;9.70;99.90;;;;;;5046081;28;20292;-68
2023/04/14 07:49:41;;;;;;;5.43;3.07;;;9.90;99.90;;;;;;5045657;28;20208;-69
2023/04/14 07:52:07;;;;;;;4.93;3.10;;;10.10;99.90;;;;;;5062488;28;20463;-68
2023/04/14 07:54:32;;;;;;;4.23;2.80;;;10.10;99.90;;;;;;5064289;28;20196;-67
2023/04/14 07:56:58;;;;;;;8.63;5.40;;;9.80;99.90;;;;;;5064031;28;20178;-68
2023/04/14 07:59:24;;;;;;;8.33;3.90;;;9.90;99.90;;;;;;5062699;28;20649;-69
2023/04/14 08:01:50;;;;;;;5.83;3.47;;;10.00;99.90;;;;;;5062418;28;20255;-68
2023/04/14 08:04:15;;;;;;;9.03;3.70;;;10.10;99.90;;;;;;5062295;28;20236;-67
2023/04/14 08:06:41;;;;;;;9.37;4.47;;;10.30;99.90;;;;;;5045490;28;20952;-67
2023/04/14 08:09:06;;;;;;;7.30;4.60;;;10.40;99.90;;;;;;5045962;28;20181;-66
2023/04/14 08:11:32;;;;;;;11.60;5.27;;;10.30;99.90;;;;;;5045852;28;20588;-65
2023/04/14 08:13:57;;;;;;;7.00;3.70;;;10.20;99.90;;;;;;5045686;28;20179;-66
2023/04/14 08:16:24;;;;;;;7.37;5.77;;;10.40;99.90;;;;;;5045769;28;20197;-67
2023/04/14 08:18:50;;;;;;;8.37;6.23;;;10.60;99.90;;;;;;5045406;28;20231;-66
2023/04/14 08:21:15;;;;;;;6.03;4.33;;;10.60;99.90;;;;;;5061469;28;20517;-66
2023/04/14 08:23:41;;;;;;;5.90;4.20;;;10.80;99.90;;;;;;5062140;28;20938;-67
2023/04/14 08:26:07;;;;;;;15.23;4.33;;;10.70;99.90;;;;;;5062207;28;20279;-69
2023/04/14 08:28:32;;;;;;;6.50;4.23;;;10.80;99.90;;;;;;5063639;28;20182;-69
2023/04/14 08:30:58;;;;;;;19.03;11.97;;;11.00;99.90;;;;;;5045493;28;20206;-68
2023/04/14 08:33:24;;;;;;;8.10;4.60;;;10.90;99.90;;;;;;5062006;28;20185;-68
2023/04/14 08:35:49;;;;;;;9.23;3.90;;;11.00;99.90;;;;;;5061953;28;20210;-66
2023/04/14 08:38:15;;;;;;;9.30;4.57;;;11.20;99.90;;;;;;5045237;28;20192;-68
2023/04/14 08:40:42;;;;;;;7.67;3.30;;;10.90;99.90;;;;;;5061938;28;20200;-68
2023/04/14 08:43:09;;;;;;;10.00;6.90;;;10.80;99.90;;;;;;5062108;28;20284;-69
2023/04/14 08:45:35;;;;;;;4.70;3.00;;;11.00;99.90;;;;;;5062126;28;20435;-67
2023/04/14 08:48:04;;;;;;;8.50;4.27;;;11.10;99.90;;;;;;5045088;28;20842;-65
2023/04/14 08:50:35;;;;;;;10.77;7.00;;;11.20;99.90;;;;;;5044512;28;20452;-67
2023/04/14 08:53:03;;;;;;;6.50;3.30;;;11.20;99.90;;;;;;5045052;28;20452;-66
2023/04/14 08:55:29;;;;;;;7.47;4.27;;;11.10;99.90;;;;;;5062334;28;20831;-68
2023/04/14 08:57:56;;;;;;;7.23;3.30;;;11.20;99.90;;;;;;5061542;28;20413;-68
2023/04/14 09:00:22;;;;;;;5.00;2.10;;;11.30;99.90;;;;;;5061612;28;20851;-67
2023/04/14 09:02:49;;;;;;;7.97;3.50;;;11.30;99.90;;;;;;5062105;28;20485;-67
2023/04/14 09:05:14;;;;;;;8.10;3.20;;;11.60;99.90;;;;;;5061568;28;20428;-67
2023/04/14 09:07:41;;;;;;;7.97;2.60;;;11.90;99.90;;;;;;5062171;28;20493;-68
2023/04/14 09:10:08;;;;;;;8.73;3.50;;;11.90;99.90;;;;;;5061745;28;20212;-70
2023/04/14 09:12:35;;;;;;;8.67;5.10;;;11.80;99.90;;;;;;5045031;28;20489;-67
2023/04/14 09:15:02;;;;;;;4.20;2.10;;;11.70;99.90;;;;;;5044478;28;20415;-66
2023/04/14 09:17:29;;;;;;;8.00;3.73;;;11.80;99.90;;;;;;5058964;28;20801;-69
2023/04/14 09:19:55;;;;;;;3.83;1.97;;;11.70;99.90;;;;;;5061251;28;21018;-66
2023/04/14 09:22:21;;;;;;;6.80;2.80;;;11.70;99.90;;;;;;5062265;28;20554;-67
2023/04/14 09:24:47;;;;;;;4.97;2.13;;;12.00;99.90;;;;;;5045645;28;21042;-67
2023/04/14 09:27:13;;;;;;;9.80;5.30;;;12.10;99.90;;;;;;5046392;28;20779;-68
2023/04/14 09:29:39;;;;;;;9.87;3.40;;;12.30;99.90;;;;;;5046317;28;20466;-68
2023/04/14 09:32:06;;;;;;;6.80;3.43;;;12.50;99.90;;;;;;5047244;28;21071;-67
2023/04/14 09:34:31;;;;;;;4.07;2.17;;;12.90;99.90;;;;;;5063299;28;20426;-68
2023/04/14 09:37:08;;;;;;;4.27;2.23;;;13.10;99.90;;;;;;5063345;28;20725;-66
2023/04/14 09:39:35;;;;;;;4.20;2.03;;;12.60;99.90;;;;;;5048743;28;20462;-66
2023/04/14 09:42:02;;;;;;;5.90;2.20;;;12.50;99.90;;;;;;5065599;28;20547;-68
2023/04/14 09:44:28;;;;;;;7.90;4.47;;;12.80;99.90;;;;;;5064949;28;20858;-68
2023/04/14 09:47:04;;;;;;;4.83;2.30;;;13.00;99.90;;;;;;5064658;28;20422;-68
2023/04/14 09:49:30;;;;;;;2.97;1.80;;;13.20;99.90;;;;;;5047998;28;20903;-68
2023/04/14 09:52:07;;;;;;;8.63;3.03;;;13.30;99.90;;;;;;5064360;28;20464;-67
2023/04/14 09:54:33;;;;;;;5.03;2.47;;;13.10;99.80;;;;;;5048638;28;20499;-68
2023/04/14 09:57:00;;;;;;;6.43;2.30;;;13.50;99.90;;;;;;5048000;28;20455;-69
2023/04/14 09:59:33;;;;;;;3.57;1.80;;;13.50;98.30;;;;;;5047745;28;20427;-67
2023/04/14 10:02:04;;;;;;;15.87;10.70;;;13.60;97.50;;;;;;5066133;28;20950;-69
2023/04/14 10:04:31;;;;;;;7.20;3.13;;;13.60;97.60;;;;;;5064338;28;20409;-68
2023/04/14 10:06:59;;;;;;;8.90;3.43;;;13.70;97.50;;;;;;5047351;28;20495;-67
2023/04/14 10:09:26;;;;;;;8.63;5.33;;;13.60;97.40;;;;;;5047758;28;20507;-68
2023/04/14 10:12:13;;;;;;;13.43;7.67;;;13.70;96.40;;;;;;5047977;28;20446;-68
2023/04/14 10:14:43;;;;;;;4.00;2.30;;;13.30;96.70;;;;;;5052972;28;20419;-68
2023/04/14 10:17:09;;;;;;;16.63;10.37;;;13.30;97.10;;;;;;5064370;28;20464;-69
2023/04/14 10:19:36;;;;;;;6.40;2.30;;;13.20;96.10;;;;;;5063979;28;20427;-68
2023/04/14 10:22:03;;;;;;;6.57;2.50;;;13.20;95.60;;;;;;5047371;28;20443;-67
2023/04/14 10:24:30;;;;;;;13.70;8.40;;;13.30;95.80;;;;;;5063962;28;20444;-68
2023/04/14 10:26:56;;;;;;;10.47;6.60;;;13.50;96.70;;;;;;5064589;28;20424;-67
2023/04/14 10:29:22;;;;;;;5.77;2.43;;;13.50;95.60;;;;;;5064003;28;20550;-67
2023/04/14 10:31:56;;;;;;;9.13;3.00;;;13.10;95.50;;;;;;5046963;28;20431;-67
2023/04/14 10:34:24;;;;;;;17.23;9.73;;;13.40;95.50;;;;;;5046985;28;20481;-69
2023/04/14 10:36:49;;;;;;;20.17;12.87;;;13.60;97.30;;;;;;5063428;28;20459;-69
2023/04/14 10:39:22;;;;;;;9.17;4.43;;;13.80;96.40;;;;;;5064480;28;20468;-69
2023/04/14 10:41:49;;;;;;;8.13;3.73;;;13.80;94.60;;;;;;5046833;28;20257;-68
2023/04/14 10:44:22;;;;;;;6.30;4.50;;;13.90;95.00;;;;;;5064096;28;20420;-69
2023/04/14 10:46:48;;;;;;;8.70;2.30;;;14.00;93.90;;;;;;5047335;28;20748;-68
2023/04/14 10:49:14;;;;;;;5.33;2.40;;;14.20;94.30;;;;;;5063612;28;20408;-69
2023/04/14 10:51:40;;;;;;;6.20;1.83;;;14.60;92.60;;;;;;5046502;28;20983;-69
2023/04/14 10:54:17;;;;;;;8.60;3.07;;;16.00;91.20;;;;;;5062571;28;20634;-67
2023/04/14 10:57:14;;;;;;;5.67;2.60;;;17.90;91.20;;;;;;5064075;28;20451;-67
2023/04/14 10:59:44;;;;;;;4.57;2.20;;;18.30;90.30;;;;;;5063431;28;20424;-67
2023/04/14 11:02:24;;;;;;;6.97;2.97;;;19.60;85.30;;;;;;5046878;28;20440;-68
2023/04/14 11:05:04;;;;;;;4.73;2.17;;;18.50;80.50;;;;;;5063249;28;20416;-69
2023/04/14 11:07:35;;;;;;;8.80;2.60;;;18.90;83.20;;;;;;5063573;28;20447;-69
2023/04/14 11:10:16;;;;;;;4.73;2.40;;;19.00;79.80;;;;;;5046278;28;20543;-69
2023/04/14 11:12:42;;;;;;;5.30;2.40;;;17.30;81.40;;;;;;5062095;28;20452;-68
2023/04/14 11:15:08;;;;;;;6.47;2.40;;;16.90;85.20;;;;;;5063001;28;20412;-68
2023/04/14 11:17:38;;;;;;;5.67;2.20;;;16.20;85.40;;;;;;5063332;28;20423;-67
2023/04/14 11:20:18;;;;;;;6.60;2.00;;;17.20;80.40;;;;;;5061772;28;20251;-67
2023/04/14 11:22:46;;;;;;;3.13;2.20;;;17.70;77.30;;;;;;5064388;28;20458;-68
2023/04/14 11:25:16;;;;;;;5.00;2.03;;;18.60;75.90;;;;;;5063475;28;20432;-69
2023/04/14 11:27:43;;;;;;;7.13;2.23;;;20.50;73.50;;;;;;5046416;28;20472;-69
2023/04/14 11:30:14;;;;;;;5.97;2.03;;;20.70;73.10;;;;;;5062563;28;20542;-68
2023/04/14 11:32:55;;;;;;;6.00;1.90;;;20.80;65.10;;;;;;5063862;28;20948;-69
2023/04/14 11:35:24;;;;;;;4.53;2.00;;;21.20;64.80;;;;;;5062283;28;20443;-68
2023/04/14 11:37:57;;;;;;;4.13;2.07;;;23.00;59.10;;;;;;5045718;28;20424;-69
2023/04/14 11:40:25;;;;;;;3.67;1.60;;;24.30;57.40;;;;;;5044757;28;21102;-68
2023/04/14 11:42:56;;;;;;;5.13;2.03;;;24.20;54.90;;;;;;5046057;28;20444;-68
2023/04/14 11:45:26;;;;;;;4.73;2.23;;;24.00;54.70;;;;;;5062443;28;20438;-69
2023/04/14 11:47:55;;;;;;;7.33;3.20;;;23.80;53.50;;;;;;5062379;28;20419;-68
2023/04/14 11:50:21;;;;;;;4.77;1.90;;;19.90;56.90;;;;;;5063308;28;20504;-68
2023/04/14 11:52:47;;;;;;;5.10;1.80;;;19.30;58.10;;;;;;5062148;28;20464;-68
2023/04/14 11:55:13;;;;;;;17.90;9.03;;;19.40;59.80;;;;;;5029068;28;20182;-69
2023/04/14 11:57:45;;;;;;;6.80;3.17;;;19.20;60.40;;;;;;5045496;28;20174;-69
2023/04/14 12:00:12;;;;;;;2.90;2.00;;;20.20;60.20;;;;;;5061864;28;20420;-68
2023/04/14 12:02:41;;;;;;;3.43;1.67;;;20.60;58.80;;;;;;5045858;28;20447;-70
2023/04/14 12:05:07;;;;;;;6.33;1.90;;;20.80;57.00;;;;;;5044426;28;20416;-70
2023/04/14 12:07:34;;;;;;;3.33;1.70;;;19.70;57.70;;;;;;5046005;28;20423;-69
2023/04/14 12:09:59;;;;;;;3.80;1.70;;;20.00;59.00;;;;;;5045235;28;21309;-70
2023/04/14 12:12:27;;;;;;;5.00;1.70;;;19.20;59.30;;;;;;5045590;28;20626;-68
2023/04/14 12:14:53;;;;;;;2.50;1.47;;;19.20;60.40;;;;;;5062202;28;20616;-70
2023/04/14 12:17:20;;;;;;;4.47;1.80;;;17.80;59.50;;;;;;5062210;28;20538;-70
2023/04/14 12:19:47;;;;;;;4.70;1.40;;;17.50;64.40;;;;;;5061711;28;20455;-68
2023/04/14 12:22:14;;;;;;;5.10;2.00;;;16.80;62.60;;;;;;5045398;28;20475;-69
2023/04/14 12:24:41;;;;;;;4.80;2.13;;;16.90;62.20;;;;;;5045842;28;20436;-69
2023/04/14 12:27:08;;;;;;;5.60;2.73;;;16.60;63.60;;;;;;5045369;28;20844;-68
2023/04/14 12:29:37;;;;;;;6.63;1.90;;;16.40;63.80;;;;;;5044971;28;20527;-69
2023/04/14 12:32:13;;;;;;;5.47;2.33;;;16.60;64.70;;;;;;5062252;28;20460;-69
2023/04/14 12:34:39;;;;;;;4.47;1.97;;;17.30;62.30;;;;;;5044888;28;20428;-68
2023/04/14 12:37:11;;;;;;;4.77;2.10;;;17.80;63.70;;;;;;5058726;28;20473;-69
2023/04/14 12:39:50;;;;;;;3.80;1.50;;;18.10;60.30;;;;;;5037611;28;20195;-69
2023/04/14 12:42:17;;;;;;;6.10;1.53;;;18.70;60.00;;;;;;5044711;28;20727;-69
2023/04/14 12:44:53;;;;;;;2.80;1.33;;;20.00;58.90;;;;;;5062931;28;20436;-70
2023/04/14 12:47:32;;;;;;;4.17;1.93;;;21.10;54.40;;;;;;5046542;28;20494;-69
2023/04/14 12:50:00;;;;;;;3.33;1.67;;;21.70;54.50;;;;;;5044213;28;20951;-70
2023/04/14 12:52:34;;;;;;;2.73;1.40;;;21.90;52.20;;;;;;5062850;28;20467;-71
2023/04/14 12:55:01;;;;;;;2.40;1.73;;;22.10;49.80;;;;;;5065843;28;20514;-70
2023/04/14 12:57:27;;;;;;;4.20;1.67;;;22.80;50.10;;;;;;5065846;28;20419;-68